^^
B2 Weather Station Historical Data
Daily Summary for April 5, 2019 Units:  English    Metric   Both
Daily Weekly Monthly Yearly Custom
  High: Low: Average:
Temperature: 55.4 °F 39.2 °F 47.3 °F
Dew Point: 52.0 °F 37.3 °F 44.9 °F
Humidity: 94% 86% 91%
Wind Speed: 13.8mph 0.0mph 3.4mph
Wind Gust: 9.1mph - -
Wind- - SSE
Pressure: 30.16 in 30.06 in -
Precipitation: 0.00 in    
Historical Graphs
 
 
Tabular Data for April 5, 2019
Time Temperature Dew Point Pressure Wind Wind Speed Wind Gust Humidity Rainfall Rate (Hourly) solar
00:04 41.0 °F 39.4 °F 30.16 in East 11.5 mph 8.7 mph 94% 0.02 in 0.00 W/m2
00:09 40.9 °F 39.3 °F 30.15 in ESE 13.8 mph 8.2 mph 94% 0.02 in 0.00 W/m2
00:14 40.9 °F 39.0 °F 30.15 in East 10.4 mph 9.1 mph 93% 0.02 in 0.00 W/m2
00:19 40.8 °F 39.2 °F 30.15 in East 10.0 mph 6.7 mph 94% 0.01 in 0.00 W/m2
00:24 40.6 °F 38.7 °F 30.15 in East 12.7 mph 7.0 mph 93% 0.01 in 0.00 W/m2
00:29 40.5 °F 38.6 °F 30.15 in East 12.7 mph 5.5 mph 93% 0.01 in 0.00 W/m2
00:34 40.4 °F 38.8 °F 30.15 in East 10.4 mph 6.4 mph 94% 0.01 in 0.00 W/m2
00:39 40.3 °F 38.7 °F 30.15 in ESE 9.2 mph 6.9 mph 94% 0.01 in 0.00 W/m2
00:44 40.2 °F 38.6 °F 30.15 in ESE 10.4 mph 7.2 mph 94% 0.01 in 0.00 W/m2
00:49 40.2 °F 38.3 °F 30.15 in ESE 8.1 mph 7.4 mph 93% 0.00 in 0.00 W/m2
00:54 40.1 °F 38.2 °F 30.15 in ESE 9.2 mph 7.0 mph 93% 0.00 in 0.00 W/m2
00:59 40.0 °F 38.1 °F 30.15 in ESE 10.0 mph 7.6 mph 93% 0.00 in 0.00 W/m2
01:04 40.0 °F 38.1 °F 30.15 in ESE 11.5 mph 8.2 mph 93% 0.00 in 0.00 W/m2
01:09 39.9 °F 38.0 °F 30.15 in East 9.2 mph 7.1 mph 93% 0.00 in 0.00 W/m2
01:14 39.8 °F 37.9 °F 30.15 in ESE 9.2 mph 8.3 mph 93% 0.00 in 0.00 W/m2
01:19 39.8 °F 37.9 °F 30.15 in East 11.5 mph 7.0 mph 93% 0.00 in 0.00 W/m2
01:24 39.7 °F 37.8 °F 30.14 in ESE 10.4 mph 6.6 mph 93% 0.00 in 0.00 W/m2
01:29 39.6 °F 37.7 °F 30.14 in ESE 9.2 mph 6.1 mph 93% 0.00 in 0.00 W/m2
01:34 39.5 °F 37.6 °F 30.14 in ESE 10.4 mph 8.4 mph 93% 0.00 in 0.00 W/m2
01:40 39.5 °F 37.6 °F 30.14 in ESE 10.4 mph 7.3 mph 93% 0.00 in 0.00 W/m2
01:44 39.4 °F 37.5 °F 30.13 in ESE 9.2 mph 7.9 mph 93% 0.00 in 0.00 W/m2
01:49 39.4 °F 37.5 °F 30.13 in ESE 8.1 mph 6.9 mph 93% 0.00 in 0.00 W/m2
01:54 39.3 °F 37.4 °F 30.12 in ESE 11.5 mph 6.6 mph 93% 0.00 in 0.00 W/m2
01:59 39.3 °F 37.4 °F 30.12 in ESE 10.4 mph 7.5 mph 93% 0.00 in 0.00 W/m2
02:04 39.3 °F 37.4 °F 30.12 in ESE 12.7 mph 8.3 mph 93% 0.00 in 0.00 W/m2
02:09 39.3 °F 37.4 °F 30.12 in East 10.4 mph 6.5 mph 93% 0.00 in 0.00 W/m2
02:14 39.2 °F 37.3 °F 30.11 in ESE 11.5 mph 6.8 mph 93% 0.00 in 0.00 W/m2
02:19 39.2 °F 37.3 °F 30.11 in ESE 8.1 mph 7.2 mph 93% 0.00 in 0.00 W/m2
02:24 39.2 °F 37.3 °F 30.11 in ESE 10.4 mph 8.8 mph 93% 0.00 in 0.00 W/m2
02:29 39.2 °F 37.3 °F 30.11 in ESE 10.4 mph 6.1 mph 93% 0.00 in 0.00 W/m2
02:34 39.2 °F 37.3 °F 30.11 in ESE 7.0 mph 7.2 mph 93% 0.00 in 0.00 W/m2
02:39 39.2 °F 37.3 °F 30.11 in ESE 8.1 mph 4.3 mph 93% 0.00 in 0.00 W/m2
02:44 39.2 °F 37.3 °F 30.10 in ESE 9.2 mph 6.1 mph 93% 0.00 in 0.00 W/m2
02:49 39.2 °F 37.3 °F 30.10 in East 8.1 mph 8.1 mph 93% 0.00 in 0.00 W/m2
02:54 39.2 °F 37.3 °F 30.10 in ESE 9.2 mph 6.2 mph 93% 0.00 in 0.00 W/m2
02:59 39.2 °F 37.3 °F 30.10 in ESE 8.1 mph 5.4 mph 93% 0.00 in 0.00 W/m2
03:04 39.2 °F 37.3 °F 30.10 in ESE 8.1 mph 5.9 mph 93% 0.00 in 0.00 W/m2
03:09 39.2 °F 37.3 °F 30.10 in East 8.1 mph 5.3 mph 93% 0.00 in 0.00 W/m2
03:14 39.2 °F 37.3 °F 30.10 in ESE 9.2 mph 7.6 mph 93% 0.00 in 0.00 W/m2
03:19 39.3 °F 37.4 °F 30.10 in ESE 11.5 mph 7.5 mph 93% 0.00 in 0.00 W/m2
03:24 39.3 °F 37.4 °F 30.10 in ESE 9.2 mph 6.3 mph 93% 0.00 in 0.00 W/m2
03:29 39.3 °F 37.4 °F 30.09 in ESE 9.0 mph 6.4 mph 93% 0.00 in 0.00 W/m2
03:34 39.3 °F 37.4 °F 30.09 in ESE 10.4 mph 5.4 mph 93% 0.00 in 0.00 W/m2
03:39 39.3 °F 37.4 °F 30.09 in SE 3.5 mph 4.0 mph 93% 0.00 in 0.00 W/m2
03:44 39.3 °F 37.4 °F 30.09 in ESE 9.2 mph 4.5 mph 93% 0.00 in 0.00 W/m2
03:49 39.4 °F 37.5 °F 30.09 in SE 6.9 mph 4.5 mph 93% 0.00 in 0.00 W/m2
03:54 39.4 °F 37.5 °F 30.09 in ESE 7.0 mph 5.4 mph 93% 0.00 in 0.00 W/m2
03:59 39.4 °F 37.5 °F 30.09 in ESE 5.0 mph 5.7 mph 93% 0.00 in 0.00 W/m2
04:04 39.4 °F 37.5 °F 30.09 in ESE 5.8 mph 4.6 mph 93% 0.00 in 0.00 W/m2
04:09 39.5 °F 37.6 °F 30.08 in East 6.9 mph 5.7 mph 93% 0.00 in 0.00 W/m2
04:14 39.5 °F 37.6 °F 30.08 in ESE 6.9 mph 3.5 mph 93% 0.00 in 0.00 W/m2
04:19 39.5 °F 37.6 °F 30.09 in ESE 3.5 mph 3.1 mph 93% 0.00 in 0.00 W/m2
04:24 39.6 °F 38.0 °F 30.08 in ESE 8.1 mph 4.5 mph 94% 0.00 in 0.00 W/m2
04:29 39.6 °F 38.0 °F 30.09 in ESE 4.6 mph 3.6 mph 94% 0.00 in 0.00 W/m2
04:34 39.6 °F 38.0 °F 30.09 in ESE 5.8 mph 4.5 mph 94% 0.00 in 0.00 W/m2
04:39 39.6 °F 38.0 °F 30.09 in ESE 7.0 mph 5.3 mph 94% 0.00 in 0.00 W/m2
04:44 39.6 °F 38.0 °F 30.09 in ESE 4.6 mph 3.4 mph 94% 0.00 in 0.00 W/m2
04:49 39.7 °F 38.1 °F 30.08 in ESE 6.9 mph 5.1 mph 94% 0.00 in 0.00 W/m2
04:54 39.6 °F 38.0 °F 30.08 in SE 7.0 mph 4.3 mph 94% 0.00 in 0.00 W/m2
04:59 39.7 °F 37.8 °F 30.08 in ESE 4.6 mph 3.7 mph 93% 0.00 in 0.00 W/m2
05:04 39.7 °F 38.1 °F 30.08 in SE 5.0 mph 3.7 mph 94% 0.00 in 0.00 W/m2
05:10 39.7 °F 37.8 °F 30.08 in ESE 4.6 mph 4.0 mph 93% 0.00 in 0.00 W/m2
05:14 39.7 °F 38.1 °F 30.08 in ESE 4.0 mph 2.9 mph 94% 0.00 in 0.00 W/m2
05:19 39.7 °F 38.1 °F 30.08 in ESE 3.5 mph 2.3 mph 94% 0.00 in 0.00 W/m2
05:24 39.7 °F 38.1 °F 30.09 in SE 4.0 mph 3.4 mph 94% 0.00 in 0.00 W/m2
05:29 39.8 °F 38.2 °F 30.08 in SE 4.6 mph 3.3 mph 94% 0.00 in 0.00 W/m2
05:34 39.8 °F 38.2 °F 30.08 in SE 3.5 mph 3.0 mph 94% 0.00 in 0.00 W/m2
05:39 39.8 °F 38.2 °F 30.09 in SE 4.6 mph 3.7 mph 94% 0.00 in 0.00 W/m2
05:44 39.8 °F 38.2 °F 30.08 in ESE 5.0 mph 4.2 mph 94% 0.00 in 0.00 W/m2
05:50 39.8 °F 38.2 °F 30.09 in ESE 4.6 mph 3.9 mph 94% 0.00 in 0.00 W/m2
05:54 39.9 °F 38.3 °F 30.08 in SE 3.5 mph 2.2 mph 94% 0.00 in 0.00 W/m2
05:59 40.0 °F 38.4 °F 30.08 in SE 3.5 mph 2.7 mph 94% 0.00 in 0.00 W/m2
06:04 40.0 °F 38.4 °F 30.08 in SE 4.6 mph 2.5 mph 94% 0.00 in 0.00 W/m2
06:09 40.0 °F 38.4 °F 30.08 in SE 3.5 mph 1.7 mph 94% 0.00 in 0.00 W/m2
06:14 40.1 °F 38.5 °F 30.08 in SE 3.5 mph 2.7 mph 94% 0.00 in 0.00 W/m2
06:19 40.1 °F 38.5 °F 30.08 in ESE 3.5 mph 1.6 mph 94% 0.00 in 0.00 W/m2
06:24 40.2 °F 38.6 °F 30.08 in ESE 2.3 mph 1.7 mph 94% 0.00 in 0.00 W/m2
06:29 40.2 °F 38.6 °F 30.08 in ESE 2.3 mph 1.5 mph 94% 0.00 in 0.00 W/m2
06:34 40.3 °F 38.7 °F 30.08 in ESE 2.3 mph 0.4 mph 94% 0.00 in 0.00 W/m2
06:39 40.3 °F 38.7 °F 30.08 in ESE 3.5 mph 1.0 mph 94% 0.00 in 0.00 W/m2
06:44 40.4 °F 38.8 °F 30.08 in ESE 3.5 mph 1.7 mph 94% 0.00 in 0.00 W/m2
06:49 40.4 °F 38.8 °F 30.08 in ESE 3.5 mph 1.4 mph 94% 0.00 in 0.00 W/m2
06:54 40.5 °F 38.9 °F 30.09 in Calm     94% 0.00 in 0.00 W/m2
06:59 40.5 °F 38.9 °F 30.09 in ESE 3.5 mph 1.4 mph 94% 0.00 in 5.00 W/m2
07:04 40.6 °F 39.0 °F 30.09 in ESE 3.5 mph 0.4 mph 94% 0.00 in 9.00 W/m2
07:09 40.6 °F 39.0 °F 30.09 in ESE 2.3 mph 0.2 mph 94% 0.00 in 12.00 W/m2
07:14 40.7 °F 39.1 °F 30.09 in ESE 1.2 mph   94% 0.00 in 16.00 W/m2
07:19 40.8 °F 39.2 °F 30.09 in Calm     94% 0.00 in 18.00 W/m2
07:24 40.9 °F 39.3 °F 30.09 in Calm     94% 0.00 in 21.00 W/m2
07:29 41.0 °F 39.4 °F 30.09 in Calm     94% 0.00 in 33.00 W/m2
07:34 41.1 °F 39.5 °F 30.09 in ESE 1.0 mph 0.3 mph 94% 0.00 in 42.00 W/m2
07:39 41.2 °F 39.6 °F 30.09 in ESE 1.2 mph 0.9 mph 94% 0.00 in 42.00 W/m2
07:44 41.3 °F 39.7 °F 30.09 in ESE 1.2 mph 0.5 mph 94% 0.00 in 42.00 W/m2
07:49 41.4 °F 39.8 °F 30.09 in ESE 2.3 mph 1.2 mph 94% 0.00 in 40.00 W/m2
07:54 41.6 °F 40.0 °F 30.09 in East 2.3 mph 2.0 mph 94% 0.00 in 40.00 W/m2
07:59 41.8 °F 40.2 °F 30.09 in East 2.0 mph 1.1 mph 94% 0.00 in 42.00 W/m2
08:04 41.8 °F 40.2 °F 30.09 in Calm     94% 0.00 in 47.00 W/m2
08:09 42.0 °F 40.4 °F 30.09 in East 2.3 mph 1.5 mph 94% 0.00 in 58.00 W/m2
08:14 42.2 °F 40.6 °F 30.09 in Calm     94% 0.00 in 54.00 W/m2
08:19 42.3 °F 40.7 °F 30.09 in East 2.3 mph 1.4 mph 94% 0.00 in 58.00 W/m2
08:24 42.4 °F 40.8 °F 30.09 in East 2.3 mph 0.9 mph 94% 0.00 in 70.00 W/m2
08:29 42.6 °F 41.0 °F 30.09 in East 1.2 mph 0.5 mph 94% 0.00 in 67.00 W/m2
08:34 42.7 °F 41.1 °F 30.09 in East 1.2 mph   94% 0.00 in 77.00 W/m2
08:39 42.9 °F 41.3 °F 30.09 in Calm     94% 0.00 in 88.00 W/m2
08:44 43.0 °F 41.4 °F 30.08 in East 2.3 mph 1.2 mph 94% 0.00 in 109.00 W/m2
08:49 43.3 °F 41.7 °F 30.09 in East 2.3 mph 0.2 mph 94% 0.00 in 121.00 W/m2
08:54 43.5 °F 41.9 °F 30.09 in East 1.2 mph   94% 0.00 in 123.00 W/m2
08:59 43.7 °F 42.1 °F 30.09 in Calm     94% 0.00 in 111.00 W/m2
09:04 43.9 °F 42.3 °F 30.09 in East 2.3 mph 0.6 mph 94% 0.00 in 107.00 W/m2
09:09 44.0 °F 42.4 °F 30.09 in East 2.3 mph 0.6 mph 94% 0.00 in 114.00 W/m2
09:14 44.2 °F 42.3 °F 30.09 in Calm     93% 0.00 in 105.00 W/m2
09:19 44.3 °F 42.4 °F 30.09 in East 2.0 mph 0.9 mph 93% 0.00 in 102.00 W/m2
09:24 44.5 °F 42.6 °F 30.09 in East 2.0 mph 0.5 mph 93% 0.00 in 100.00 W/m2
09:29 44.7 °F 42.8 °F 30.09 in East 1.2 mph   93% 0.00 in 107.00 W/m2
09:34 44.7 °F 42.8 °F 30.09 in Calm     93% 0.00 in 113.00 W/m2
09:40 44.8 °F 42.9 °F 30.09 in East 3.5 mph 1.7 mph 93% 0.00 in 109.00 W/m2
09:44 45.0 °F 43.1 °F 30.09 in East 2.3 mph 0.2 mph 93% 0.00 in 107.00 W/m2
09:49 45.1 °F 43.2 °F 30.09 in East 2.3 mph 0.3 mph 93% 0.00 in 113.00 W/m2
09:54 45.2 °F 43.3 °F 30.09 in Calm     93% 0.00 in 105.00 W/m2
09:59 45.4 °F 43.5 °F 30.09 in Calm     93% 0.00 in 135.00 W/m2
10:04 45.4 °F 43.5 °F 30.09 in Calm     93% 0.00 in 153.00 W/m2
10:09 45.5 °F 43.6 °F 30.09 in Calm     93% 0.00 in 163.00 W/m2
10:14 45.7 °F 43.8 °F 30.09 in Calm     93% 0.00 in 142.00 W/m2
10:19 45.9 °F 44.0 °F 30.09 in Calm     93% 0.00 in 174.00 W/m2
10:24 46.0 °F 44.1 °F 30.09 in Calm     93% 0.00 in 197.00 W/m2
10:29 46.2 °F 44.3 °F 30.09 in Calm     93% 0.00 in 221.00 W/m2
10:34 46.5 °F 44.6 °F 30.09 in Calm     93% 0.00 in 258.00 W/m2
10:39 46.8 °F 44.9 °F 30.10 in Calm     93% 0.00 in 264.00 W/m2
10:45 47.1 °F 45.2 °F 30.10 in Calm     93% 0.00 in 230.00 W/m2
10:49 47.4 °F 45.2 °F 30.10 in Calm     92% 0.00 in 213.00 W/m2
10:54 47.5 °F 45.3 °F 30.10 in Calm     92% 0.00 in 236.00 W/m2
10:59 47.6 °F 45.4 °F 30.10 in Calm     92% 0.00 in 260.00 W/m2
11:04 48.0 °F 45.8 °F 30.10 in Calm     92% 0.00 in 288.00 W/m2
11:09 48.4 °F 46.2 °F 30.10 in Calm     92% 0.00 in 272.00 W/m2
11:14 48.7 °F 46.5 °F 30.10 in Calm     92% 0.00 in 260.00 W/m2
11:19 48.8 °F 46.3 °F 30.10 in Calm     91% 0.00 in 281.00 W/m2
11:24 49.0 °F 46.5 °F 30.10 in Calm     91% 0.00 in 255.00 W/m2
11:30 49.3 °F 47.1 °F 30.10 in Calm     92% 0.00 in 283.00 W/m2
11:35 49.5 °F 47.0 °F 30.10 in Calm     91% 0.00 in 281.00 W/m2
11:39 49.6 °F 47.1 °F 30.11 in Calm     91% 0.00 in 251.00 W/m2
11:44 49.6 °F 47.1 °F 30.11 in Calm     91% 0.00 in 211.00 W/m2
11:49 49.7 °F 47.2 °F 30.11 in Calm     91% 0.00 in 207.00 W/m2
11:54 49.8 °F 47.3 °F 30.11 in Calm     91% 0.00 in 225.00 W/m2
11:59 49.9 °F 47.1 °F 30.10 in Calm     90% 0.00 in 216.00 W/m2
12:04 50.1 °F 47.3 °F 30.11 in Calm     90% 0.00 in 221.00 W/m2
12:09 50.2 °F 47.4 °F 30.11 in Calm     90% 0.00 in 213.00 W/m2
12:14 50.3 °F 47.5 °F 30.11 in Calm     90% 0.00 in 199.00 W/m2
12:19 50.5 °F 47.7 °F 30.10 in Calm     90% 0.00 in 190.00 W/m2
12:24 50.8 °F 48.0 °F 30.10 in Calm     90% 0.00 in 211.00 W/m2
12:29 50.9 °F 48.1 °F 30.10 in Calm     90% 0.00 in 373.00 W/m2
12:34 51.3 °F 48.8 °F 30.10 in SE 3.5 mph 1.7 mph 91% 0.00 in 422.00 W/m2
12:39 51.7 °F 48.9 °F 30.10 in SSE 3.5 mph 2.2 mph 90% 0.00 in 345.00 W/m2
12:44 51.7 °F 48.6 °F 30.09 in Calm     89% 0.00 in 243.00 W/m2
12:49 51.8 °F 49.0 °F 30.09 in Calm     90% 0.00 in 283.00 W/m2
12:54 51.9 °F 48.8 °F 30.09 in Calm     89% 0.00 in 323.00 W/m2
12:59 52.1 °F 49.0 °F 30.09 in South 1.0 mph 2.4 mph 89% 0.00 in 278.00 W/m2
13:04 52.1 °F 49.0 °F 30.09 in Calm     89% 0.00 in 278.00 W/m2
13:09 52.4 °F 49.3 °F 30.09 in Calm     89% 0.00 in 251.00 W/m2
13:14 52.6 °F 49.4 °F 30.09 in SE 2.0 mph 1.0 mph 89% 0.00 in 260.00 W/m2
13:19 52.6 °F 49.4 °F 30.09 in South 4.6 mph 0.6 mph 89% 0.00 in 241.00 W/m2
13:24 52.5 °F 49.0 °F 30.09 in Calm     88% 0.00 in 253.00 W/m2
13:29 52.6 °F 49.1 °F 30.09 in Calm     88% 0.00 in 241.00 W/m2
13:34 52.7 °F 49.2 °F 30.09 in SSW 2.3 mph 1.5 mph 88% 0.00 in 237.00 W/m2
13:39 52.6 °F 48.8 °F 30.09 in Calm     87% 0.00 in 246.00 W/m2
13:44 52.7 °F 49.2 °F 30.09 in Calm     88% 0.00 in 251.00 W/m2
13:49 53.0 °F 49.5 °F 30.09 in Calm     88% 0.00 in 260.00 W/m2
13:54 53.1 °F 49.3 °F 30.09 in West 3.5 mph 2.0 mph 87% 0.00 in 283.00 W/m2
13:59 53.2 °F 49.4 °F 30.09 in SW 2.3 mph 1.5 mph 87% 0.00 in 294.00 W/m2
14:04 53.2 °F 49.4 °F 30.09 in SSW 2.3 mph 0.9 mph 87% 0.00 in 304.00 W/m2
14:09 53.3 °F 49.5 °F 30.08 in SW 3.5 mph 2.3 mph 87% 0.00 in 302.00 W/m2
14:14 53.4 °F 49.6 °F 30.08 in WNW 4.6 mph 2.7 mph 87% 0.00 in 290.00 W/m2
14:19 53.5 °F 49.7 °F 30.08 in West 3.5 mph 1.2 mph 87% 0.00 in 269.00 W/m2
14:24 53.6 °F 49.8 °F 30.08 in West 4.6 mph 2.4 mph 87% 0.00 in 274.00 W/m2
14:29 53.6 °F 49.8 °F 30.08 in WNW 4.6 mph 3.1 mph 87% 0.00 in 299.00 W/m2
14:34 53.7 °F 50.2 °F 30.08 in West 3.5 mph 2.4 mph 88% 0.00 in 285.00 W/m2
14:39 53.8 °F 50.3 °F 30.08 in NW 3.5 mph 1.5 mph 88% 0.00 in 290.00 W/m2
14:45 54.0 °F 50.5 °F 30.08 in WSW 4.6 mph 2.1 mph 88% 0.00 in 250.00 W/m2
14:49 54.0 °F 50.2 °F 30.08 in WSW 4.6 mph 2.2 mph 87% 0.00 in 229.00 W/m2
14:54 53.9 °F 50.1 °F 30.08 in West 5.8 mph 2.9 mph 87% 0.00 in 225.00 W/m2
14:59 53.9 °F 50.4 °F 30.08 in WSW 3.5 mph 2.5 mph 88% 0.00 in 234.00 W/m2
15:04 53.9 °F 50.4 °F 30.08 in West 3.5 mph 1.9 mph 88% 0.00 in 221.00 W/m2
15:09 53.9 °F 50.4 °F 30.08 in WSW 4.6 mph 3.0 mph 88% 0.00 in 223.00 W/m2
15:14 54.0 °F 50.5 °F 30.08 in WSW 3.5 mph 2.3 mph 88% 0.00 in 223.00 W/m2
15:19 54.1 °F 50.6 °F 30.07 in WSW 3.5 mph 1.4 mph 88% 0.00 in 216.00 W/m2
15:24 54.2 °F 50.7 °F 30.07 in WNW 3.5 mph 1.1 mph 88% 0.00 in 214.00 W/m2
15:29 54.4 °F 50.9 °F 30.07 in WNW 3.5 mph 3.2 mph 88% 0.00 in 207.00 W/m2
15:34 54.3 °F 50.5 °F 30.07 in NW 5.8 mph 3.7 mph 87% 0.00 in 197.00 W/m2
15:39 54.2 °F 50.7 °F 30.07 in NW 3.5 mph 3.0 mph 88% 0.00 in 190.00 W/m2
15:44 54.2 °F 50.7 °F 30.07 in WNW 4.6 mph 2.3 mph 88% 0.00 in 181.00 W/m2
15:49 54.1 °F 50.6 °F 30.07 in NW 3.5 mph 1.7 mph 88% 0.00 in 176.00 W/m2
15:54 54.2 °F 50.7 °F 30.07 in NW 2.3 mph 1.4 mph 88% 0.00 in 174.00 W/m2
15:59 54.2 °F 50.7 °F 30.07 in NW 4.6 mph 2.2 mph 88% 0.00 in 158.00 W/m2
16:04 54.1 °F 50.6 °F 30.07 in WNW 3.5 mph 2.3 mph 88% 0.00 in 160.00 W/m2
16:10 54.1 °F 50.6 °F 30.07 in NW 3.5 mph 1.4 mph 88% 0.00 in 172.00 W/m2
16:14 54.2 °F 50.7 °F 30.07 in NNW 4.6 mph 2.6 mph 88% 0.00 in 174.00 W/m2
16:20 54.1 °F 50.6 °F 30.07 in NW 3.5 mph 3.2 mph 88% 0.00 in 165.00 W/m2
16:24 54.1 °F 50.6 °F 30.07 in NNW 4.0 mph 2.4 mph 88% 0.00 in 153.00 W/m2
16:29 54.1 °F 50.6 °F 30.07 in WNW 4.6 mph 2.9 mph 88% 0.00 in 160.00 W/m2
16:35 54.0 °F 50.5 °F 30.07 in NNW 5.0 mph 4.2 mph 88% 0.00 in 174.00 W/m2
16:39 53.9 °F 50.7 °F 30.07 in NW 4.6 mph 3.3 mph 89% 0.00 in 202.00 W/m2
16:44 53.9 °F 50.7 °F 30.07 in NNW 6.9 mph 5.9 mph 89% 0.00 in 244.00 W/m2
16:49 54.4 °F 51.5 °F 30.07 in NNW 8.1 mph 5.4 mph 90% 0.00 in 348.00 W/m2
16:54 54.8 °F 51.6 °F 30.07 in NNW 8.1 mph 5.8 mph 89% 0.00 in 364.00 W/m2
16:59 54.8 °F 51.3 °F 30.06 in North 8.1 mph 5.2 mph 88% 0.00 in 225.00 W/m2
17:04 54.8 °F 51.6 °F 30.07 in NNE 6.9 mph 6.0 mph 89% 0.00 in 526.00 W/m2
17:09 55.1 °F 51.9 °F 30.07 in NNW 5.8 mph 4.1 mph 89% 0.00 in 265.00 W/m2
17:14 55.2 °F 52.0 °F 30.07 in North 5.8 mph 4.1 mph 89% 0.00 in 316.00 W/m2
17:19 55.4 °F 51.9 °F 30.07 in North 6.9 mph 4.5 mph 88% 0.00 in 214.00 W/m2
17:24 55.3 °F 51.5 °F 30.07 in North 5.8 mph 2.9 mph 87% 0.00 in 329.00 W/m2
17:29 55.4 °F 51.6 °F 30.07 in NNW 4.6 mph 3.6 mph 87% 0.00 in 336.00 W/m2
17:34 55.4 °F 51.6 °F 30.07 in North 4.6 mph 2.4 mph 87% 0.00 in 156.00 W/m2
17:39 55.4 °F 51.6 °F 30.07 in NE 4.6 mph 3.7 mph 87% 0.00 in 144.00 W/m2
17:44 55.3 °F 51.5 °F 30.07 in North 3.5 mph 2.3 mph 87% 0.00 in 139.00 W/m2
17:50 55.1 °F 51.0 °F 30.07 in North 3.5 mph 1.5 mph 86% 0.00 in 113.00 W/m2
17:54 55.0 °F 50.9 °F 30.07 in North 2.3 mph 1.3 mph 86% 0.00 in 93.00 W/m2
17:59 55.0 °F 51.2 °F 30.07 in North 3.5 mph 1.5 mph 87% 0.00 in 84.00 W/m2
18:04 55.0 °F 51.2 °F 30.07 in North 3.5 mph 1.7 mph 87% 0.00 in 90.00 W/m2
18:09 55.0 °F 51.2 °F 30.08 in NNE 3.5 mph 2.8 mph 87% 0.00 in 90.00 W/m2
18:14 54.8 °F 51.0 °F 30.08 in NNE 3.5 mph 1.8 mph 87% 0.00 in 83.00 W/m2
18:19 54.7 °F 50.9 °F 30.08 in NNE 3.5 mph 1.9 mph 87% 0.00 in 76.00 W/m2
18:24 54.6 °F 51.1 °F 30.08 in NNE 3.5 mph 1.4 mph 88% 0.00 in 51.00 W/m2
18:29 54.4 °F 50.9 °F 30.08 in NNE 3.5 mph 1.7 mph 88% 0.00 in 32.00 W/m2
18:34 54.3 °F 50.8 °F 30.08 in NNE 3.5 mph 2.2 mph 88% 0.00 in 30.00 W/m2
18:39 54.1 °F 50.9 °F 30.08 in NNE 3.5 mph 1.1 mph 89% 0.00 in 23.00 W/m2
18:44 53.9 °F 50.7 °F 30.08 in NNE 2.3 mph 1.2 mph 89% 0.00 in 23.00 W/m2
18:49 53.8 °F 50.6 °F 30.08 in NNE 2.3 mph 1.0 mph 89% 0.00 in 26.00 W/m2
18:55 53.7 °F 50.5 °F 30.08 in Calm     89% 0.00 in 19.00 W/m2
18:59 53.7 °F 50.5 °F 30.08 in Calm     89% 0.00 in 12.00 W/m2
19:04 53.6 °F 50.7 °F 30.08 in Calm     90% 0.00 in 7.00 W/m2
19:09 53.5 °F 50.6 °F 30.08 in Calm     90% 0.00 in 0.00 W/m2
19:14 53.4 °F 50.5 °F 30.09 in Calm     90% 0.00 in 0.00 W/m2
19:19 53.4 °F 50.5 °F 30.09 in NNE 1.2 mph   90% 0.00 in 0.00 W/m2
19:24 53.3 °F 50.4 °F 30.09 in Calm     90% 0.00 in 0.00 W/m2
19:29 53.3 °F 50.4 °F 30.09 in Calm     90% 0.00 in 0.00 W/m2
19:34 53.2 °F 50.3 °F 30.08 in Calm     90% 0.00 in 0.00 W/m2
19:39 53.1 °F 50.2 °F 30.08 in Calm     90% 0.00 in 0.00 W/m2
19:45 53.0 °F 50.1 °F 30.08 in Calm     90% 0.00 in 0.00 W/m2
19:49 52.9 °F 50.0 °F 30.08 in Calm     90% 0.00 in 0.00 W/m2
19:54 52.8 °F 50.2 °F 30.09 in NNE 2.3 mph 0.3 mph 91% 0.00 in 0.00 W/m2
19:59 52.8 °F 50.2 °F 30.09 in Calm     91% 0.00 in 0.00 W/m2
20:04 52.8 °F 50.2 °F 30.09 in NNE 1.2 mph 0.1 mph 91% 0.00 in 0.00 W/m2
20:09 52.8 °F 50.2 °F 30.10 in NW 3.5 mph 1.3 mph 91% 0.00 in 0.00 W/m2
20:15 52.8 °F 50.2 °F 30.10 in NW 1.2 mph 0.2 mph 91% 0.00 in 0.00 W/m2
20:19 52.9 °F 50.3 °F 30.10 in NW 2.3 mph 1.1 mph 91% 0.00 in 0.00 W/m2
20:24 52.9 °F 50.0 °F 30.11 in NW 3.5 mph 1.5 mph 90% 0.00 in 0.00 W/m2
20:29 52.9 °F 50.3 °F 30.11 in NW 2.3 mph 0.3 mph 91% 0.00 in 0.00 W/m2
20:34 52.8 °F 50.2 °F 30.11 in Calm     91% 0.00 in 0.00 W/m2
20:39 52.8 °F 50.2 °F 30.11 in NW 3.5 mph 1.2 mph 91% 0.00 in 0.00 W/m2
20:44 52.7 °F 50.1 °F 30.11 in WNW 3.5 mph 1.7 mph 91% 0.00 in 0.00 W/m2
20:49 52.6 °F 50.0 °F 30.11 in NW 2.3 mph 0.7 mph 91% 0.00 in 0.00 W/m2
20:55 52.6 °F 50.0 °F 30.12 in NW 1.2 mph   91% 0.00 in 0.00 W/m2
20:59 52.6 °F 50.0 °F 30.12 in Calm   0.4 mph 91% 0.00 in 0.00 W/m2
21:04 52.5 °F 49.9 °F 30.12 in Calm   0.6 mph 91% 0.00 in 0.00 W/m2
21:09 52.4 °F 49.8 °F 30.12 in NNW 2.3 mph 1.5 mph 91% 0.00 in 0.00 W/m2
21:15 52.3 °F 49.8 °F 30.12 in NNW 2.3 mph 1.1 mph 91% 0.00 in 0.00 W/m2
21:19 52.2 °F 49.7 °F 30.13 in NNW 3.5 mph 2.0 mph 91% 0.00 in 0.00 W/m2
21:24 52.1 °F 49.6 °F 30.13 in NNW 3.5 mph 1.6 mph 91% 0.00 in 0.00 W/m2
21:29 52.0 °F 49.5 °F 30.13 in NNW 2.3 mph 0.6 mph 91% 0.00 in 0.00 W/m2
21:34 51.9 °F 49.4 °F 30.13 in NNW 2.3 mph 0.2 mph 91% 0.00 in 0.00 W/m2
21:39 51.9 °F 49.4 °F 30.13 in NNW 1.2 mph 0.5 mph 91% 0.00 in 0.00 W/m2
21:45 51.8 °F 49.3 °F 30.13 in Calm     91% 0.00 in 0.00 W/m2
21:49 51.8 °F 49.3 °F 30.13 in NNW 2.3 mph 1.6 mph 91% 0.00 in 0.00 W/m2
21:54 51.7 °F 49.2 °F 30.13 in Calm     91% 0.00 in 0.00 W/m2
21:59 51.5 °F 49.0 °F 30.13 in Calm     91% 0.00 in 0.00 W/m2
22:04 51.4 °F 48.9 °F 30.13 in Calm     91% 0.00 in 0.00 W/m2
22:09 51.2 °F 48.7 °F 30.13 in Calm     91% 0.00 in 0.00 W/m2
22:14 51.1 °F 48.9 °F 30.13 in Calm     92% 0.00 in 0.00 W/m2
22:19 51.0 °F 48.8 °F 30.13 in Calm     92% 0.00 in 0.00 W/m2
22:24 50.8 °F 48.6 °F 30.13 in Calm     92% 0.00 in 0.00 W/m2
22:29 50.7 °F 48.5 °F 30.13 in Calm     92% 0.00 in 0.00 W/m2
22:35 50.6 °F 48.4 °F 30.13 in Calm     92% 0.00 in 0.00 W/m2
22:39 50.5 °F 48.6 °F 30.13 in Calm     93% 0.00 in 0.00 W/m2
22:44 50.4 °F 48.5 °F 30.13 in Calm     93% 0.00 in 0.00 W/m2
22:49 50.2 °F 48.0 °F 30.13 in Calm     92% 0.00 in 0.00 W/m2
22:54 50.0 °F 48.1 °F 30.13 in Calm     93% 0.00 in 0.00 W/m2
22:59 49.9 °F 48.0 °F 30.13 in Calm     93% 0.00 in 0.00 W/m2
23:04 49.9 °F 48.0 °F 30.13 in Calm     93% 0.00 in 0.00 W/m2
23:09 49.9 °F 48.0 °F 30.13 in Calm     93% 0.00 in 0.00 W/m2
23:14 49.8 °F 47.9 °F 30.13 in Calm     93% 0.00 in 0.00 W/m2
23:20 49.5 °F 47.6 °F 30.13 in Calm     93% 0.00 in 0.00 W/m2
23:24 49.4 °F 47.5 °F 30.13 in Calm     93% 0.00 in 0.00 W/m2
23:30 49.2 °F 47.3 °F 30.13 in Calm     93% 0.00 in 0.00 W/m2
23:34 49.1 °F 47.2 °F 30.13 in Calm     93% 0.00 in 0.00 W/m2
23:39 48.9 °F 47.0 °F 30.13 in Calm     93% 0.00 in 0.00 W/m2
23:45 48.8 °F 46.9 °F 30.13 in Calm     93% 0.00 in 0.00 W/m2
23:49 48.7 °F 46.8 °F 30.13 in Calm     93% 0.00 in 0.00 W/m2
23:54 48.5 °F 46.6 °F 30.13 in Calm     93% 0.00 in 0.00 W/m2
23:59 48.4 °F 46.8 °F 30.13 in Calm     94% 0.00 in 0.00 W/m2
Bourbonnais, Illinois, USA
Compliments of Weather Underground - 4 mb